Time;durP1;ratioP1;P1;durP2;ratioP2;P2;SDS_P1;SDS_P2;PMS_P1;PMS_P2;Temp;Humidity;BMP_temperature;BMP_pressure;BME280_temperature;BME280_humidity;BME280_pressure;Samples;Min_cycle;Max_cycle;Signal;HPM_P1;HPM_P2
2022/07/16 00:02:35;;;;;;;4.95;3.40;;;;;;;11.44;100.00;98787.22;2608468;28;20059;-77
2022/07/16 00:03:52;;;;;;;5.13;3.30;;;;;;;11.39;100.00;98792.59;2608947;28;20049;-77
2022/07/16 00:05:08;;;;;;;6.05;4.00;;;;;;;11.32;100.00;98791.03;2609163;28;20044;-78
2022/07/16 00:06:25;;;;;;;5.18;3.72;;;;;;;11.27;100.00;98787.66;2608600;28;20422;-78
2022/07/16 00:07:41;;;;;;;5.57;3.30;;;;;;;11.24;100.00;98793.81;2608719;28;20141;-81
2022/07/16 00:08:56;;;;;;;5.07;3.60;;;;;;;11.24;100.00;98792.97;2608680;28;20471;-78
2022/07/16 00:10:12;;;;;;;8.75;3.97;;;;;;;11.25;100.00;98787.72;2608978;28;20053;-76
2022/07/16 00:11:27;;;;;;;5.15;3.38;;;;;;;11.28;100.00;98787.63;2609108;28;20084;-75
2022/07/16 00:12:43;;;;;;;6.68;3.78;;;;;;;11.27;100.00;98778.03;2608246;28;20052;-76
2022/07/16 00:13:58;;;;;;;5.57;3.47;;;;;;;11.34;100.00;98778.75;2608611;28;20396;-76
2022/07/16 00:15:14;;;;;;;5.07;3.53;;;;;;;11.39;100.00;98778.63;2607893;28;20045;-76
2022/07/16 00:16:30;;;;;;;4.45;3.38;;;;;;;11.44;100.00;98784.59;2608102;28;20557;-76
2022/07/16 00:17:45;;;;;;;6.50;3.72;;;;;;;11.49;100.00;98782.72;2608298;28;20420;-76
2022/07/16 00:19:16;;;;;;;4.32;3.42;;;;;;;11.54;100.00;98786.09;2609037;28;20045;-76
2022/07/16 00:20:31;;;;;;;7.22;4.05;;;;;;;11.64;100.00;98776.22;2608713;28;20045;-76
2022/07/16 00:21:50;;;;;;;6.65;3.70;;;;;;;11.66;100.00;98778.78;2608875;28;20497;-76
2022/07/16 00:23:06;;;;;;;4.75;3.25;;;;;;;11.70;100.00;98777.81;2608378;28;20049;-76
2022/07/16 00:24:23;;;;;;;6.15;4.18;;;;;;;11.73;100.00;98778.59;2608575;28;20137;-77
2022/07/16 00:25:39;;;;;;;4.97;4.00;;;;;;;11.75;100.00;98778.53;2608577;28;20486;-77
2022/07/16 00:26:55;;;;;;;6.63;4.38;;;;;;;11.76;100.00;98779.41;2608320;28;20057;-76
2022/07/16 00:28:10;;;;;;;6.50;4.47;;;;;;;11.82;100.00;98776.59;2608717;28;20453;-76
2022/07/16 00:29:26;;;;;;;7.20;4.32;;;;;;;11.80;100.00;98779.25;2608707;28;20045;-76
2022/07/16 00:30:41;;;;;;;6.53;4.45;;;;;;;11.81;100.00;98772.25;2608864;28;20056;-76
2022/07/16 00:31:57;;;;;;;7.47;4.10;;;;;;;11.82;100.00;98776.59;2608308;28;20049;-76
2022/07/16 00:33:13;;;;;;;7.93;4.32;;;;;;;11.85;100.00;98774.75;2608825;28;20049;-77
2022/07/16 00:34:28;;;;;;;5.93;4.22;;;;;;;11.85;100.00;98776.50;2608606;28;20057;-76
2022/07/16 00:35:44;;;;;;;6.10;4.15;;;;;;;11.85;100.00;98768.66;2608778;28;20053;-76
2022/07/16 00:36:59;;;;;;;6.50;4.30;;;;;;;11.87;100.00;98778.19;2607680;28;20136;-75
2022/07/16 00:38:15;;;;;;;6.95;4.25;;;;;;;11.87;100.00;98772.94;2608138;28;20059;-77
2022/07/16 00:39:31;;;;;;;9.20;4.43;;;;;;;11.92;100.00;98777.19;2608236;28;20049;-76
2022/07/16 00:40:46;;;;;;;5.70;3.70;;;;;;;11.98;100.00;98770.03;2608640;28;20049;-76
2022/07/16 00:42:02;;;;;;;6.25;3.90;;;;;;;12.11;100.00;98772.31;2607964;28;20485;-76
2022/07/16 00:43:17;;;;;;;5.88;3.80;;;;;;;12.09;100.00;98763.63;2608622;28;20442;-76
2022/07/16 00:44:33;;;;;;;5.65;4.10;;;;;;;12.07;100.00;98765.47;2608687;28;20718;-76
2022/07/16 00:45:49;;;;;;;6.03;3.90;;;;;;;12.05;100.00;98765.50;2608242;28;20080;-78
2022/07/16 00:47:04;;;;;;;5.97;3.75;;;;;;;12.02;100.00;98765.59;2608034;28;20045;-76
2022/07/16 00:48:20;;;;;;;6.35;4.22;;;;;;;12.00;100.00;98757.72;2608861;28;20045;-77
2022/07/16 00:49:35;;;;;;;5.03;4.00;;;;;;;11.98;100.00;98767.41;2607714;28;20939;-76
2022/07/16 00:50:51;;;;;;;4.40;3.97;;;;;;;11.99;100.00;98763.88;2608119;28;20142;-76
2022/07/16 00:52:07;;;;;;;4.85;4.00;;;;;;;11.98;100.00;98759.53;2608492;28;20055;-76
2022/07/16 00:53:22;;;;;;;6.40;3.97;;;;;;;11.98;100.00;98754.28;2608694;28;20049;-76
2022/07/16 00:54:38;;;;;;;6.05;4.28;;;;;;;11.99;100.00;98758.63;2608401;28;20053;-75
2022/07/16 00:55:54;;;;;;;6.88;4.28;;;;;;;11.97;100.00;98763.06;2608722;28;20045;-76
2022/07/16 00:57:10;;;;;;;4.65;4.18;;;;;;;11.97;100.00;98755.19;2608108;28;20131;-75
2022/07/16 00:58:26;;;;;;;10.60;5.22;;;;;;;12.03;100.00;98754.19;2608776;28;20119;-76
2022/07/16 00:59:41;;;;;;;7.05;4.57;;;;;;;12.02;100.00;98755.09;2608003;28;20499;-76
2022/07/16 01:00:57;;;;;;;9.32;4.60;;;;;;;12.02;100.00;98749.00;2608090;28;20053;-76
2022/07/16 01:02:13;;;;;;;5.38;4.13;;;;;;;12.02;100.00;98751.63;2608677;28;20056;-75
2022/07/16 01:03:30;;;;;;;6.63;4.40;;;;;;;11.96;100.00;98748.22;2608417;28;20071;-75
2022/07/16 01:04:47;;;;;;;6.93;4.93;;;;;;;11.92;100.00;98741.34;2607997;28;20072;-75
2022/07/16 01:06:04;;;;;;;6.55;4.20;;;;;;;11.88;100.00;98752.84;2608079;28;20048;-75
2022/07/16 01:07:22;;;;;;;5.72;4.25;;;;;;;11.81;100.00;98746.03;2607840;28;20052;-76
2022/07/16 01:08:41;;;;;;;6.47;4.10;;;;;;;11.76;100.00;98751.41;2608134;28;20599;-76
2022/07/16 01:09:58;;;;;;;5.05;3.90;;;;;;;11.81;100.00;98751.28;2607906;28;20057;-75
2022/07/16 01:11:17;;;;;;;5.40;3.65;;;;;;;11.81;100.00;98753.91;2608786;28;20495;-76
2022/07/16 01:12:33;;;;;;;5.63;4.10;;;;;;;11.76;100.00;98751.41;2608415;28;20879;-76
2022/07/16 01:13:50;;;;;;;5.70;4.05;;;;;;;11.71;100.00;98751.53;2608453;28;20088;-76
2022/07/16 01:15:06;;;;;;;7.95;3.70;;;;;;;11.66;100.00;98748.19;2608358;28;20533;-75
2022/07/16 01:16:22;;;;;;;6.30;4.05;;;;;;;11.63;100.00;98750.03;2608488;28;20056;-76
2022/07/16 01:17:38;;;;;;;7.20;3.53;;;;;;;11.57;100.00;98744.06;2608178;28;20144;-75
2022/07/16 01:18:54;;;;;;;4.43;3.63;;;;;;;11.57;100.00;98748.41;2607607;28;20553;-75
2022/07/16 01:20:09;;;;;;;5.30;3.70;;;;;;;11.56;100.00;98747.56;2608388;28;20483;-76
2022/07/16 01:21:26;;;;;;;7.20;3.90;;;;;;;11.52;100.00;98751.16;2607573;28;20419;-76
2022/07/16 01:22:42;;;;;;;7.57;3.47;;;;;;;11.50;100.00;98747.72;2608224;28;20049;-76
2022/07/16 01:23:58;;;;;;;7.55;3.60;;;;;;;11.48;100.00;98743.44;2608074;28;20056;-77
2022/07/16 01:25:13;;;;;;;5.32;3.88;;;;;;;11.44;100.00;98748.75;2607114;28;20048;-76
2022/07/16 01:26:29;;;;;;;7.55;3.90;;;;;;;11.41;100.00;98746.22;2607661;28;20049;-76
2022/07/16 01:27:45;;;;;;;5.80;3.95;;;;;;;11.42;100.00;98747.09;2607503;28;20057;-76
2022/07/16 01:29:00;;;;;;;5.88;4.00;;;;;;;11.39;100.00;98753.25;2607836;28;20052;-77
2022/07/16 01:30:16;;;;;;;6.38;3.97;;;;;;;11.26;100.00;98746.63;2608096;28;20049;-76
2022/07/16 01:31:31;;;;;;;9.50;4.53;;;;;;;11.19;100.00;98748.53;2608444;28;20514;-76
2022/07/16 01:32:47;;;;;;;8.13;4.43;;;;;;;11.10;100.00;98760.13;2608004;28;20610;-76
2022/07/16 01:35:37;;;;;;;5.60;4.75;;;;;;;11.01;100.00;98752.47;2608273;28;20049;-76
2022/07/16 01:37:10;;;;;;;8.18;4.45;;;;;;;11.01;100.00;98757.72;2607366;28;20118;-75
2022/07/16 01:38:27;;;;;;;9.93;4.50;;;;;;;11.07;100.00;98759.31;2607957;28;20052;-76
2022/07/16 01:39:43;;;;;;;6.65;4.22;;;;;;;11.04;100.00;98757.66;2608119;28;20167;-76
2022/07/16 01:40:58;;;;;;;5.47;4.75;;;;;;;11.02;100.00;98757.69;2607893;28;20140;-76
2022/07/16 01:42:14;;;;;;;6.15;4.10;;;;;;;11.01;100.00;98749.84;2607614;28;20116;-76
2022/07/16 01:43:30;;;;;;;7.30;4.30;;;;;;;10.96;100.00;98747.34;2607172;28;20164;-77
2022/07/16 01:44:45;;;;;;;9.93;4.57;;;;;;;10.97;100.00;98746.47;2608348;28;20059;-76
2022/07/16 01:46:02;;;;;;;5.13;4.10;;;;;;;11.00;100.00;98745.50;2607894;28;20045;-75
2022/07/16 01:47:17;;;;;;;5.28;4.32;;;;;;;10.96;100.00;98744.72;2607607;28;20052;-77
2022/07/16 01:48:33;;;;;;;5.95;3.95;;;;;;;10.97;100.00;98745.59;2607802;28;20059;-76
2022/07/16 01:49:49;;;;;;;5.93;4.00;;;;;;;10.96;100.00;98738.63;2608183;28;20049;-77
2022/07/16 01:51:04;;;;;;;5.18;3.67;;;;;;;10.97;100.00;98740.34;2607317;28;20049;-76
2022/07/16 01:52:21;;;;;;;5.78;3.72;;;;;;;10.99;100.00;98741.19;2607774;28;20048;-76
2022/07/16 01:53:37;;;;;;;8.65;4.00;;;;;;;10.98;100.00;98744.69;2607870;28;20049;-76
2022/07/16 01:54:53;;;;;;;5.30;3.80;;;;;;;10.98;100.00;98740.34;2607926;28;20049;-76
2022/07/16 01:56:09;;;;;;;6.70;4.70;;;;;;;10.99;100.00;98738.56;2607856;28;20139;-76
2022/07/16 01:57:24;;;;;;;5.90;4.40;;;;;;;10.97;100.00;98741.22;2608054;28;20048;-76
2022/07/16 01:58:40;;;;;;;6.88;4.40;;;;;;;10.92;100.00;98744.88;2607870;28;20057;-76
2022/07/16 01:59:55;;;;;;;7.70;5.10;;;;;;;10.88;100.00;98741.44;2608108;28;20056;-76
2022/07/16 02:01:11;;;;;;;7.28;4.78;;;;;;;11.00;100.00;98737.66;2607747;28;20045;-75
2022/07/16 02:02:27;;;;;;;5.85;4.72;;;;;;;11.03;100.00;98737.56;2607685;28;20049;-76
2022/07/16 02:03:42;;;;;;;7.15;5.03;;;;;;;11.00;100.00;98729.78;2607920;28;20135;-76
2022/07/16 02:04:58;;;;;;;6.90;5.15;;;;;;;10.99;100.00;98736.81;2607354;28;20049;-76
2022/07/16 02:06:13;;;;;;;7.60;4.47;;;;;;;10.95;100.00;98735.16;2607766;28;20052;-75
2022/07/16 02:07:29;;;;;;;5.75;4.15;;;;;;;10.86;100.00;98731.00;2607730;28;20480;-75
2022/07/16 02:08:45;;;;;;;6.53;4.10;;;;;;;10.75;100.00;98733.00;2607402;28;20126;-75
2022/07/16 02:10:00;;;;;;;6.20;4.30;;;;;;;10.69;100.00;98738.41;2606866;28;20415;-75
2022/07/16 02:11:16;;;;;;;5.93;4.20;;;;;;;10.63;100.00;98728.09;2607852;28;20096;-76
2022/07/16 02:12:31;;;;;;;14.43;5.07;;;;;;;10.56;100.00;98725.59;2607592;28;20045;-75
2022/07/16 02:13:47;;;;;;;6.63;4.50;;;;;;;10.52;100.00;98731.81;2607994;28;20539;-75
2022/07/16 02:15:05;;;;;;;5.28;4.25;;;;;;;10.52;100.00;98731.81;2607859;28;20049;-75
2022/07/16 02:16:20;;;;;;;7.10;3.85;;;;;;;10.51;100.00;98737.06;2607399;28;20134;-77
2022/07/16 02:17:36;;;;;;;6.47;4.00;;;;;;;10.46;100.00;98737.16;2607674;28;20110;-76
2022/07/16 02:18:52;;;;;;;8.43;4.43;;;;;;;10.39;100.00;98727.72;2607738;28;20052;-76
2022/07/16 02:20:09;;;;;;;6.05;4.20;;;;;;;10.39;100.00;98732.97;2607488;28;20037;-76
2022/07/16 02:21:24;;;;;;;6.13;3.88;;;;;;;10.36;100.00;98733.03;2607280;28;20099;-76
2022/07/16 02:22:40;;;;;;;7.88;4.00;;;;;;;10.33;100.00;98739.19;2606853;28;20050;-75
2022/07/16 02:23:56;;;;;;;6.22;3.97;;;;;;;10.36;100.00;98736.50;2608048;28;20131;-76
2022/07/16 02:25:12;;;;;;;6.10;4.43;;;;;;;10.37;100.00;98732.13;2607785;28;20059;-76
2022/07/16 02:26:27;;;;;;;6.85;4.20;;;;;;;10.38;100.00;98731.25;2607765;28;20045;-76
2022/07/16 02:29:17;;;;;;;5.75;3.92;;;;;;;10.53;100.00;98730.03;2607768;28;20056;-76
2022/07/16 02:30:38;;;;;;;4.70;3.80;;;;;;;10.51;100.00;98732.72;2607419;28;20057;-76
2022/07/16 02:31:54;;;;;;;7.05;4.10;;;;;;;10.54;100.00;98734.38;2607552;28;20049;-75
2022/07/16 02:33:12;;;;;;;6.53;3.83;;;;;;;10.57;100.00;98739.56;2607519;28;20575;-75
2022/07/16 02:34:28;;;;;;;5.80;4.10;;;;;;;10.56;100.00;98741.31;2607840;28;20049;-76
2022/07/16 02:35:44;;;;;;;7.47;4.22;;;;;;;10.58;100.00;98733.44;2607360;28;20044;-76
2022/07/16 02:36:59;;;;;;;6.35;3.50;;;;;;;10.57;100.00;98734.34;2607208;28;20057;-76
2022/07/16 02:38:15;;;;;;;5.05;4.07;;;;;;;10.53;100.00;98738.78;2606252;28;20588;-75
2022/07/16 02:39:32;;;;;;;5.82;4.13;;;;;;;10.53;100.00;98737.91;2606395;28;20083;-75
2022/07/16 02:40:47;;;;;;;7.28;4.13;;;;;;;10.50;100.00;98735.34;2607560;28;20124;-76
2022/07/16 02:42:03;;;;;;;6.18;4.20;;;;;;;10.46;100.00;98737.16;2607624;28;20053;-76
2022/07/16 02:43:18;;;;;;;5.32;3.85;;;;;;;10.49;100.00;98738.88;2607536;28;20048;-75
2022/07/16 02:44:34;;;;;;;5.70;3.83;;;;;;;10.52;100.00;98738.78;2607678;28;20045;-76
2022/07/16 02:45:50;;;;;;;6.85;3.88;;;;;;;10.56;100.00;98737.84;2607216;28;20057;-75
2022/07/16 02:47:05;;;;;;;4.65;3.45;;;;;;;10.54;100.00;98739.63;2607443;28;20491;-75
2022/07/16 02:48:21;;;;;;;5.65;3.60;;;;;;;10.48;100.00;98745.00;2606842;28;20392;-76
2022/07/16 02:49:37;;;;;;;7.40;3.85;;;;;;;10.47;100.00;98746.75;2607252;28;20064;-76
2022/07/16 02:50:52;;;;;;;4.28;3.45;;;;;;;10.45;100.00;98741.56;2607413;28;20049;-75
2022/07/16 02:52:08;;;;;;;6.07;3.53;;;;;;;10.45;100.00;98748.53;2607782;28;20072;-76
2022/07/16 02:53:23;;;;;;;4.88;3.65;;;;;;;10.40;100.00;98739.91;2607178;28;20084;-76
2022/07/16 02:54:39;;;;;;;5.35;3.50;;;;;;;10.34;100.00;98737.41;2607607;28;20048;-75
2022/07/16 02:55:55;;;;;;;6.72;4.10;;;;;;;10.30;100.00;98732.25;2607398;28;20041;-76
2022/07/16 02:57:10;;;;;;;6.28;3.90;;;;;;;10.32;100.00;98738.31;2607038;28;20415;-76
2022/07/16 02:58:26;;;;;;;7.18;4.38;;;;;;;10.37;100.00;98738.22;2607585;28;20147;-75
2022/07/16 02:59:41;;;;;;;5.03;3.95;;;;;;;10.36;100.00;98736.50;2607351;28;20118;-75
2022/07/16 03:00:57;;;;;;;5.05;3.80;;;;;;;10.39;100.00;98738.19;2607377;28;20094;-76
2022/07/16 03:02:12;;;;;;;4.93;3.50;;;;;;;10.36;100.00;98735.66;2607131;28;20447;-75
2022/07/16 03:03:28;;;;;;;5.80;3.80;;;;;;;10.33;100.00;98736.56;2607449;28;20045;-75
2022/07/16 03:04:44;;;;;;;6.55;3.80;;;;;;;10.30;100.00;98732.25;2607242;28;20052;-76
2022/07/16 03:06:01;;;;;;;5.50;3.90;;;;;;;10.29;100.00;98733.16;2607930;28;20465;-76
2022/07/16 03:07:16;;;;;;;4.43;3.53;;;;;;;10.31;100.00;98728.75;2607047;28;20092;-76
2022/07/16 03:08:32;;;;;;;4.60;3.50;;;;;;;10.30;100.00;98727.03;2607766;28;20052;-75
2022/07/16 03:09:48;;;;;;;4.88;3.33;;;;;;;10.30;100.00;98728.78;2607193;28;20049;-77
2022/07/16 03:11:03;;;;;;;6.25;3.58;;;;;;;10.28;100.00;98717.50;2607678;28;20049;-75
2022/07/16 03:12:19;;;;;;;5.63;3.97;;;;;;;10.25;100.00;98715.81;2607352;28;20049;-75
2022/07/16 03:13:34;;;;;;;6.80;3.83;;;;;;;10.16;100.00;98713.38;2607791;28;20052;-76
2022/07/16 03:14:50;;;;;;;5.55;3.72;;;;;;;10.13;100.00;98710.84;2607367;28;20049;-76
2022/07/16 03:16:06;;;;;;;5.60;3.78;;;;;;;10.14;100.00;98715.19;2607524;28;20049;-76
2022/07/16 03:17:21;;;;;;;4.65;3.40;;;;;;;10.11;100.00;98710.00;2607452;28;20045;-79
2022/07/16 03:18:37;;;;;;;4.70;3.47;;;;;;;10.03;100.00;98721.50;2607254;28;20045;-79
2022/07/16 03:19:53;;;;;;;4.93;3.75;;;;;;;9.99;100.00;98721.63;2607064;28;20087;-82
2022/07/16 03:21:08;;;;;;;4.40;3.63;;;;;;;10.01;100.00;98719.81;2607600;28;20052;-79
2022/07/16 03:22:24;;;;;;;4.22;3.55;;;;;;;9.97;100.00;98719.03;2607467;28;20114;-79
2022/07/16 03:23:39;;;;;;;5.15;3.55;;;;;;;9.95;100.00;98715.59;2607494;28;20048;-77
2022/07/16 03:24:55;;;;;;;6.75;3.55;;;;;;;9.93;100.00;98721.72;2606567;28;20480;-78
2022/07/16 03:26:10;;;;;;;5.90;3.67;;;;;;;9.84;100.00;98725.41;2607627;28;20044;-77
2022/07/16 03:27:26;;;;;;;5.55;3.25;;;;;;;9.80;100.00;98723.75;2607211;28;20052;-77
2022/07/16 03:28:42;;;;;;;6.90;4.03;;;;;;;9.80;100.00;98726.34;2607246;28;20044;-77
2022/07/16 03:29:57;;;;;;;5.60;3.40;;;;;;;9.80;100.00;98728.97;2607179;28;20052;-78
2022/07/16 03:31:13;;;;;;;5.63;3.55;;;;;;;9.80;100.00;98728.97;2607633;28;20052;-76
2022/07/16 03:32:28;;;;;;;4.82;3.40;;;;;;;9.81;100.00;98730.69;2606613;28;20122;-76
2022/07/16 03:33:44;;;;;;;9.02;3.70;;;;;;;9.77;100.00;98729.00;2606381;28;20041;-76
2022/07/16 03:35:03;;;;;;;5.50;3.88;;;;;;;9.74;100.00;98733.41;2606878;28;20080;-75
2022/07/16 03:36:19;;;;;;;5.82;3.55;;;;;;;9.75;100.00;98732.53;2607095;28;20049;-75
2022/07/16 03:38:57;;;;;;;8.48;3.90;;;;;;;9.78;100.00;98733.34;2607464;28;20076;-76
2022/07/16 03:39:10;;;;;;;4.88;4.20;;;;;;;9.81;100.00;98733.31;2606741;28;20052;-76
2022/07/16 03:40:27;;;;;;;5.40;3.42;;;;;;;9.87;100.00;98728.81;2607447;28;20131;-82
2022/07/16 03:41:43;;;;;;;5.15;3.38;;;;;;;9.91;100.00;98729.59;2607173;28;20080;-76
2022/07/16 03:42:58;;;;;;;5.15;3.65;;;;;;;9.93;100.00;98733.06;2606903;28;20049;-76
2022/07/16 03:44:14;;;;;;;7.55;4.30;;;;;;;9.98;100.00;98728.59;2607820;28;20056;-75
2022/07/16 03:45:29;;;;;;;6.63;4.13;;;;;;;10.00;100.00;98725.94;2609284;28;20407;-75
2022/07/16 03:46:45;;;;;;;7.63;3.95;;;;;;;10.03;100.00;98726.72;2608879;28;20048;-76
2022/07/16 03:48:00;;;;;;;7.38;3.70;;;;;;;10.03;100.00;98724.09;2609178;28;20053;-76
2022/07/16 03:49:16;;;;;;;4.32;3.70;;;;;;;10.05;100.00;98729.31;2609179;28;20076;-75
2022/07/16 03:50:32;;;;;;;4.95;3.95;;;;;;;10.13;100.00;98732.66;2608487;28;20048;-76
2022/07/16 03:51:47;;;;;;;4.68;3.63;;;;;;;10.25;100.00;98739.34;2609010;28;20847;-75
2022/07/16 03:53:03;;;;;;;9.48;4.15;;;;;;;10.39;100.00;98736.41;2608792;28;20071;-76
2022/07/16 03:54:18;;;;;;;5.75;3.70;;;;;;;10.41;100.00;98733.81;2609394;28;20502;-75
2022/07/16 03:55:34;;;;;;;6.60;4.88;;;;;;;10.44;100.00;98738.97;2609065;28;20072;-76
2022/07/16 03:56:50;;;;;;;4.00;3.30;;;;;;;10.50;100.00;98738.84;2608984;28;20049;-76
2022/07/16 03:58:05;;;;;;;5.68;3.63;;;;;;;10.54;100.00;98730.03;2608743;28;20048;-75
2022/07/16 03:59:21;;;;;;;5.18;3.65;;;;;;;10.57;100.00;98743.03;2609078;28;20056;-75
2022/07/16 04:00:36;;;;;;;5.53;3.50;;;;;;;10.54;100.00;98743.09;2608336;28;20049;-76
2022/07/16 04:01:52;;;;;;;4.47;3.35;;;;;;;10.63;100.00;98734.19;2608898;28;20077;-75
2022/07/16 04:03:07;;;;;;;6.85;3.55;;;;;;;10.71;100.00;98741.84;2608916;28;20502;-75
2022/07/16 04:04:23;;;;;;;9.25;3.80;;;;;;;10.63;100.00;98741.19;2609088;28;20052;-76
2022/07/16 04:05:39;;;;;;;4.88;4.10;;;;;;;10.65;100.00;98742.00;2608399;28;20055;-77
2022/07/16 04:06:54;;;;;;;5.75;3.42;;;;;;;10.50;100.00;98738.84;2608336;28;20048;-78
2022/07/16 04:08:10;;;;;;;5.10;3.42;;;;;;;10.49;100.00;98739.75;2608386;28;20132;-77
2022/07/16 04:09:25;;;;;;;4.10;3.60;;;;;;;10.54;100.00;98744.84;2609004;28;20041;-79
2022/07/16 04:10:41;;;;;;;5.45;3.65;;;;;;;10.44;100.00;98734.59;2608233;28;20053;-78
2022/07/16 04:11:56;;;;;;;5.85;3.63;;;;;;;10.49;100.00;98738.88;2609348;28;20037;-77
2022/07/16 04:13:12;;;;;;;7.43;3.67;;;;;;;10.45;100.00;98736.31;2608779;28;20045;-77
2022/07/16 04:14:27;;;;;;;4.30;3.30;;;;;;;10.47;100.00;98738.03;2608876;28;20048;-78
2022/07/16 04:15:43;;;;;;;5.88;3.40;;;;;;;10.42;100.00;98732.91;2608470;28;20041;-77
2022/07/16 04:16:59;;;;;;;6.25;3.50;;;;;;;10.38;100.00;98736.47;2608080;28;20487;-78
2022/07/16 04:18:14;;;;;;;4.18;3.33;;;;;;;10.41;100.00;98728.56;2608055;28;20045;-78
2022/07/16 04:19:30;;;;;;;5.47;3.53;;;;;;;10.36;100.00;98733.88;2608384;28;20411;-79
2022/07/16 04:20:47;;;;;;;9.32;3.70;;;;;;;10.24;100.00;98727.16;2607916;28;20048;-78
2022/07/16 04:22:03;;;;;;;4.85;3.75;;;;;;;10.22;100.00;98728.97;2608216;28;20107;-78
2022/07/16 04:23:18;;;;;;;9.35;4.15;;;;;;;10.21;100.00;98734.22;2608863;28;20146;-80
2022/07/16 04:24:34;;;;;;;6.00;3.90;;;;;;;10.46;100.00;98739.78;2608604;28;20132;-78
2022/07/16 04:25:50;;;;;;;6.20;3.70;;;;;;;10.52;100.00;98734.44;2608546;28;20064;-78
2022/07/16 04:27:05;;;;;;;7.43;4.30;;;;;;;10.66;100.00;98736.72;2608459;28;20045;-78
2022/07/16 04:28:21;;;;;;;4.88;3.40;;;;;;;10.59;100.00;98736.00;2608759;28;20056;-78
2022/07/16 04:29:36;;;;;;;5.60;3.40;;;;;;;10.59;100.00;98736.00;2608202;28;20530;-78
2022/07/16 04:30:52;;;;;;;4.57;3.22;;;;;;;10.68;100.00;98736.69;2608755;28;20127;-78
2022/07/16 04:32:07;;;;;;;5.55;3.53;;;;;;;10.87;100.00;98742.34;2608191;28;20049;-78
2022/07/16 04:33:23;;;;;;;5.25;3.63;;;;;;;10.91;100.00;98743.16;2608819;28;20045;-79
2022/07/16 04:34:39;;;;;;;3.95;3.05;;;;;;;10.87;100.00;98737.97;2608877;28;20045;-78
2022/07/16 04:35:54;;;;;;;5.22;3.72;;;;;;;10.94;100.00;98738.66;2608689;28;20061;-78
2022/07/16 04:37:10;;;;;;;5.50;3.67;;;;;;;10.99;100.00;98741.19;2608125;28;20068;-78
2022/07/16 04:38:25;;;;;;;4.85;3.90;;;;;;;11.02;100.00;98735.84;2608834;28;20052;-78
2022/07/16 04:39:41;;;;;;;5.85;3.55;;;;;;;11.11;100.00;98740.03;2608420;28;20060;-78
2022/07/16 04:40:57;;;;;;;5.57;3.90;;;;;;;11.20;100.00;98734.53;2608420;28;20063;-82
2022/07/16 04:42:12;;;;;;;5.10;3.40;;;;;;;11.21;100.00;98740.66;2608589;28;20049;-78
2022/07/16 04:43:28;;;;;;;5.45;3.25;;;;;;;11.28;100.00;98739.56;2608134;28;20534;-77
2022/07/16 04:44:44;;;;;;;4.85;3.47;;;;;;;11.19;100.00;98737.22;2608257;28;20056;-76
2022/07/16 04:45:59;;;;;;;7.80;3.85;;;;;;;11.14;100.00;98737.31;2608558;28;20053;-76
2022/07/16 04:47:15;;;;;;;8.43;3.95;;;;;;;11.15;100.00;98742.50;2608281;28;20442;-76
2022/07/16 04:48:31;;;;;;;5.30;3.80;;;;;;;11.09;100.00;98732.19;2608515;28;20090;-76
2022/07/16 04:49:47;;;;;;;8.50;4.00;;;;;;;11.03;100.00;98732.34;2608368;28;20083;-77
2022/07/16 04:51:06;;;;;;;5.05;3.78;;;;;;;11.12;100.00;98732.09;2608239;28;20082;-78
2022/07/16 04:52:21;;;;;;;5.72;4.18;;;;;;;11.12;100.00;98736.50;2608505;28;20691;-76
2022/07/16 04:53:37;;;;;;;4.05;3.28;;;;;;;11.21;100.00;98730.16;2608527;28;20057;-76
2022/07/16 04:54:53;;;;;;;5.32;3.83;;;;;;;11.23;100.00;98733.59;2608519;28;20072;-76
2022/07/16 04:56:09;;;;;;;5.07;4.00;;;;;;;11.24;100.00;98724.84;2607975;28;20442;-76
2022/07/16 04:57:24;;;;;;;6.18;3.88;;;;;;;11.19;100.00;98718.88;2608387;28;20450;-75
2022/07/16 04:58:40;;;;;;;6.28;3.95;;;;;;;11.26;100.00;98733.50;2607216;28;20521;-77
2022/07/16 04:59:56;;;;;;;4.68;3.65;;;;;;;11.23;100.00;98733.59;2607910;28;20045;-81
2022/07/16 05:01:12;;;;;;;8.90;4.03;;;;;;;11.23;100.00;98741.47;2607994;28;20099;-76
2022/07/16 05:04:02;;;;;;;7.15;3.85;;;;;;;11.07;100.00;98725.25;2608271;28;20068;-77
2022/07/16 05:05:20;;;;;;;6.80;4.10;;;;;;;11.01;100.00;98723.66;2607372;28;20045;-76
2022/07/16 05:06:35;;;;;;;4.93;3.67;;;;;;;11.00;100.00;98729.78;2613160;28;20514;-76
2022/07/16 05:07:51;;;;;;;5.15;3.97;;;;;;;10.97;100.00;98728.13;2611483;28;20049;-76
2022/07/16 05:09:07;;;;;;;5.35;3.60;;;;;;;10.98;100.00;98728.97;2608454;28;20048;-76
2022/07/16 05:10:22;;;;;;;6.53;4.22;;;;;;;11.00;100.00;98727.19;2608374;28;20045;-76
2022/07/16 05:11:38;;;;;;;7.15;4.10;;;;;;;11.04;100.00;98726.22;2608260;28;20549;-76
2022/07/16 05:12:53;;;;;;;6.22;3.90;;;;;;;11.06;100.00;98724.41;2607766;28;20538;-77
2022/07/16 05:14:09;;;;;;;5.28;3.42;;;;;;;11.12;100.00;98726.03;2601044;28;20510;-76
2022/07/16 05:15:26;;;;;;;5.32;3.78;;;;;;;11.18;100.00;98731.09;2604778;28;20053;-76
2022/07/16 05:16:41;;;;;;;6.60;4.22;;;;;;;11.34;100.00;98731.56;2601237;28;20103;-77
2022/07/16 05:17:57;;;;;;;5.40;3.88;;;;;;;11.39;100.00;98732.28;2602277;28;20052;-76
2022/07/16 05:19:13;;;;;;;5.32;3.65;;;;;;;11.46;100.00;98737.38;2605965;28;20048;-76
2022/07/16 05:20:29;;;;;;;4.78;3.20;;;;;;;11.48;100.00;98739.03;2607689;28;20053;-76
2022/07/16 05:21:45;;;;;;;3.92;3.33;;;;;;;11.54;100.00;98732.78;2607130;28;20048;-76
2022/07/16 05:23:01;;;;;;;4.15;3.58;;;;;;;11.51;100.00;98730.25;2608319;28;20056;-77
2022/07/16 05:24:16;;;;;;;5.82;3.75;;;;;;;11.57;100.00;98737.94;2607758;28;20671;-75
2022/07/16 05:25:32;;;;;;;5.25;3.50;;;;;;;11.57;100.00;98730.94;2607171;28;20049;-76
2022/07/16 05:26:47;;;;;;;5.15;3.28;;;;;;;11.65;100.00;98725.47;2607325;28;20049;-75
2022/07/16 05:28:03;;;;;;;5.68;3.25;;;;;;;11.64;100.00;98730.75;2607368;28;20082;-75
2022/07/16 05:29:18;;;;;;;6.00;3.70;;;;;;;11.58;100.00;98739.66;2607582;28;20555;-75
2022/07/16 05:30:34;;;;;;;4.85;3.50;;;;;;;11.73;100.00;98736.63;2607860;28;20053;-76
2022/07/16 05:31:50;;;;;;;5.60;3.28;;;;;;;11.72;100.00;98737.50;2607157;28;20052;-75
2022/07/16 05:33:06;;;;;;;4.82;3.78;;;;;;;11.70;100.00;98733.22;2607873;28;20051;-76
2022/07/16 05:34:21;;;;;;;7.47;3.88;;;;;;;11.75;100.00;98735.72;2607946;28;20560;-75
2022/07/16 05:35:37;;;;;;;7.05;3.88;;;;;;;11.78;100.00;98740.88;2607757;28;20129;-75
2022/07/16 05:36:53;;;;;;;5.45;3.33;;;;;;;11.77;100.00;98736.53;2607465;28;20103;-75
2022/07/16 05:38:08;;;;;;;4.93;3.30;;;;;;;11.81;100.00;98735.53;2607946;28;20037;-76
2022/07/16 05:39:24;;;;;;;7.53;3.47;;;;;;;11.79;100.00;98737.34;2607496;28;20048;-76
2022/07/16 05:40:39;;;;;;;6.20;3.75;;;;;;;11.82;100.00;98735.50;2607822;28;20853;-79
2022/07/16 05:41:56;;;;;;;6.50;3.60;;;;;;;11.88;100.00;98737.09;2607466;28;20048;-77
2022/07/16 05:43:11;;;;;;;5.35;3.40;;;;;;;11.90;100.00;98735.28;2607550;28;20048;-76
2022/07/16 05:44:27;;;;;;;5.20;3.60;;;;;;;11.87;100.00;98730.97;2607163;28;20053;-75
2022/07/16 05:45:42;;;;;;;5.43;3.47;;;;;;;11.90;100.00;98730.03;2608023;28;20049;-76
2022/07/16 05:46:58;;;;;;;5.25;3.90;;;;;;;11.87;100.00;98737.97;2607799;28;20049;-76
2022/07/16 05:48:13;;;;;;;6.53;3.80;;;;;;;12.00;100.00;98730.63;2607918;28;20049;-76
2022/07/16 05:49:29;;;;;;;7.93;3.45;;;;;;;11.98;100.00;98743.78;2607785;28;20048;-78
2022/07/16 05:50:45;;;;;;;5.47;3.88;;;;;;;12.04;100.00;98737.53;2607714;28;20045;-78
2022/07/16 05:52:01;;;;;;;5.65;3.30;;;;;;;12.21;100.00;98738.78;2608429;28;20056;-79
2022/07/16 05:53:16;;;;;;;7.40;3.75;;;;;;;12.25;100.00;98741.28;2607463;28;20483;-78
2022/07/16 05:54:31;;;;;;;4.03;3.63;;;;;;;12.32;100.00;98741.97;2607361;28;20895;-78
2022/07/16 05:55:47;;;;;;;4.68;3.50;;;;;;;12.42;100.00;98743.41;2607893;28;20404;-78
2022/07/16 05:57:03;;;;;;;4.88;3.72;;;;;;;12.53;100.00;98735.19;2608084;28;20056;-78
2022/07/16 05:58:18;;;;;;;5.38;3.67;;;;;;;12.55;100.00;98735.16;2607543;28;20053;-77
2022/07/16 05:59:34;;;;;;;7.18;3.63;;;;;;;12.67;100.00;98739.13;2606999;28;20045;-78
2022/07/16 06:00:49;;;;;;;5.22;3.55;;;;;;;12.63;100.00;98733.13;2606854;28;20045;-78